Time;durP1;ratioP1;P1;durP2;ratioP2;P2;SDS_P1;SDS_P2;PMS_P1;PMS_P2;Temp;Humidity;BMP_temperature;BMP_pressure;BME280_temperature;BME280_humidity;BME280_pressure;Samples;Min_cycle;Max_cycle;Signal;HPM_P1;HPM_P2
2021/03/15 00:00:00;;;;;;;5.90;2.75;;;;;;;2.54;89.07;98850.16;5065613;28;20049;-79
2021/03/15 00:02:26;;;;;;;7.78;2.88;;;;;;;2.39;88.04;98836.31;5054144;28;20041;-79
2021/03/15 00:04:53;;;;;;;7.00;2.85;;;;;;;2.41;88.68;98827.16;5064514;28;20443;-79
2021/03/15 00:07:19;;;;;;;6.97;2.95;;;;;;;2.33;88.15;98837.72;5073938;28;20447;-79
2021/03/15 00:09:45;;;;;;;4.90;3.13;;;;;;;2.40;88.24;98832.66;5074225;28;20048;-79
2021/03/15 00:12:13;;;;;;;5.90;2.90;;;;;;;2.52;87.71;98842.25;5074168;28;20052;-79
2021/03/15 00:14:40;;;;;;;3.83;2.90;;;;;;;2.47;87.77;98829.28;5073418;28;20048;-80
2021/03/15 00:17:06;;;;;;;6.35;3.15;;;;;;;2.59;88.15;98843.41;5074132;28;20098;-79
2021/03/15 00:19:33;;;;;;;7.63;3.17;;;;;;;2.47;88.37;98826.59;5073050;28;20059;-79
2021/03/15 00:21:59;;;;;;;5.50;3.28;;;;;;;2.56;89.10;98837.44;5073894;28;20051;-79
2021/03/15 00:24:25;;;;;;;7.18;3.58;;;;;;;2.50;89.76;98814.72;5073260;28;20113;-79
2021/03/15 00:26:51;;;;;;;24.08;12.43;;;;;;;2.48;89.55;98835.47;5073500;28;20048;-79
2021/03/15 00:29:19;;;;;;;13.95;7.30;;;;;;;2.39;89.41;98822.91;5073923;28;20446;-78
2021/03/15 00:31:46;;;;;;;6.72;3.88;;;;;;;2.35;89.56;98821.50;5073237;28;20044;-79
2021/03/15 00:34:12;;;;;;;8.38;4.45;;;;;;;2.30;89.67;98817.41;5073354;28;20052;-79
2021/03/15 00:36:38;;;;;;;8.20;5.38;;;;;;;2.24;90.28;98807.25;5073562;28;20048;-79
2021/03/15 00:39:05;;;;;;;7.68;4.47;;;;;;;2.39;89.68;98830.97;5073758;28;20079;-80
2021/03/15 00:41:31;;;;;;;8.98;4.50;;;;;;;2.33;89.85;98802.84;5067348;28;20049;-79
2021/03/15 00:43:57;;;;;;;6.78;3.83;;;;;;;2.34;89.95;98814.44;5070577;28;20052;-79
2021/03/15 00:46:33;;;;;;;7.88;3.35;;;;;;;2.36;90.16;98817.81;5072978;28;20055;-79
2021/03/15 00:49:00;;;;;;;6.03;2.70;;;;;;;2.44;89.11;98818.81;5068977;28;20044;-79
2021/03/15 00:51:27;;;;;;;4.63;3.30;;;;;;;2.32;89.96;98795.81;5073388;28;20048;-79
2021/03/15 00:53:53;;;;;;;5.43;3.42;;;;;;;2.46;89.66;98819.50;5072206;28;20099;-79
2021/03/15 00:56:19;;;;;;;4.30;3.20;;;;;;;2.46;90.07;98807.94;5073386;28;20121;-79
2021/03/15 00:58:46;;;;;;;4.28;3.10;;;;;;;2.35;89.77;98800.91;5072790;28;20049;-79
2021/03/15 01:01:16;;;;;;;5.15;3.17;;;;;;;2.48;89.36;98814.00;5072175;28;20051;-79
2021/03/15 01:03:42;;;;;;;4.28;2.20;;;;;;;2.43;89.71;98806.38;5072701;28;20103;-79
2021/03/15 01:06:11;;;;;;;5.63;2.83;;;;;;;2.40;89.56;98801.31;5071851;28;20044;-79
2021/03/15 01:08:38;;;;;;;3.78;2.60;;;;;;;2.45;89.70;98809.78;5072426;28;20056;-79
2021/03/15 01:11:04;;;;;;;5.65;3.85;;;;;;;2.40;90.48;98808.50;5072425;28;20052;-79
2021/03/15 01:13:31;;;;;;;7.72;2.65;;;;;;;2.35;90.76;98800.91;5072502;28;20052;-78
2021/03/15 01:15:57;;;;;;;5.13;2.80;;;;;;;2.35;90.15;98803.56;5071478;28;20055;-79
2021/03/15 01:18:23;;;;;;;5.40;2.80;;;;;;;2.32;90.74;98794.94;5070742;28;20055;-78
2021/03/15 01:20:50;;;;;;;4.25;2.95;;;;;;;2.37;90.16;98801.59;5072839;28;20488;-79
2021/03/15 01:23:17;;;;;;;3.55;2.60;;;;;;;2.38;90.91;98799.75;5072443;28;20051;-79
2021/03/15 01:25:43;;;;;;;8.65;3.95;;;;;;;2.23;90.49;98776.03;5071943;28;20488;-79
2021/03/15 01:28:11;;;;;;;7.03;2.97;;;;;;;2.23;90.61;98770.69;5070601;28;20440;-79
2021/03/15 01:30:39;;;;;;;4.80;3.08;;;;;;;2.38;90.19;98787.19;5072890;28;20052;-79
2021/03/15 01:33:06;;;;;;;3.03;2.38;;;;;;;2.25;89.95;98770.53;5072371;28;20048;-79
2021/03/15 01:35:33;;;;;;;4.13;2.83;;;;;;;2.24;90.18;98767.03;5072175;28;20056;-79
2021/03/15 01:38:00;;;;;;;6.38;3.13;;;;;;;2.40;90.01;98790.56;5073110;28;20467;-79
2021/03/15 01:40:28;;;;;;;5.22;2.90;;;;;;;2.33;90.40;98784.06;5072450;28;20055;-79
2021/03/15 01:42:55;;;;;;;10.48;4.15;;;;;;;2.37;89.74;98782.81;5072558;28;20048;-79
2021/03/15 01:45:22;;;;;;;5.85;2.92;;;;;;;2.36;89.60;98786.47;5072096;28;20048;-79
2021/03/15 01:47:49;;;;;;;13.88;3.63;;;;;;;2.33;89.83;98770.66;5072675;28;20574;-79
2021/03/15 01:50:17;;;;;;;8.52;2.67;;;;;;;2.43;89.56;98778.72;5072706;28;20059;-79
2021/03/15 01:52:45;;;;;;;6.13;3.10;;;;;;;2.47;89.57;98783.66;5072317;28;20051;-79
2021/03/15 01:55:13;;;;;;;5.05;2.60;;;;;;;2.38;90.01;98762.19;5070893;28;20695;-79
2021/03/15 01:57:40;;;;;;;5.30;3.03;;;;;;;2.44;89.15;98764.31;5072580;28;20044;-79
2021/03/15 02:00:09;;;;;;;3.33;2.83;;;;;;;2.44;89.52;98765.16;5072371;28;20496;-80
2021/03/15 02:02:36;;;;;;;4.43;2.67;;;;;;;2.33;89.33;98748.38;5071978;28;20044;-80
2021/03/15 02:05:03;;;;;;;5.40;3.35;;;;;;;2.41;89.47;98761.91;5072058;28;20052;-80
2021/03/15 02:07:29;;;;;;;3.95;2.65;;;;;;;2.37;89.29;98749.78;5072292;28;20044;-80
2021/03/15 02:09:55;;;;;;;3.83;2.85;;;;;;;2.36;89.74;98748.91;5072330;28;20057;-80
2021/03/15 02:12:49;;;;;;;6.00;3.22;;;;;;;2.38;89.62;98738.91;5072749;28;20048;-79
2021/03/15 02:15:23;;;;;;;9.65;2.88;;;;;;;2.35;89.36;98722.22;5049694;28;20488;-80
2021/03/15 02:18:02;;;;;;;4.47;2.67;;;;;;;2.29;88.76;98711.09;5061920;28;20056;-80
2021/03/15 02:21:19;;;;;;;6.43;3.53;;;;;;;2.31;88.53;98727.03;5076624;28;20050;-79
2021/03/15 02:23:51;;;;;;;4.18;2.92;;;;;;;2.25;89.15;98727.63;5030138;28;20508;-80
2021/03/15 02:26:42;;;;;;;8.95;3.00;;;;;;;2.08;89.06;98702.38;5055928;28;20481;-80
2021/03/15 02:29:55;;;;;;;8.90;3.40;;;;;;;2.13;89.61;98724.25;5061592;28;20051;-79
2021/03/15 02:32:52;;;;;;;6.25;3.58;;;;;;;2.13;90.30;98719.72;5029409;28;20055;-79
2021/03/15 02:35:21;;;;;;;5.90;2.75;;;;;;;2.06;90.36;98701.66;5075188;28;20515;-80
2021/03/15 02:37:51;;;;;;;8.07;4.43;;;;;;;2.17;90.22;98717.59;5076378;28;20102;-80
2021/03/15 02:40:23;;;;;;;7.57;3.67;;;;;;;2.06;91.08;98699.84;5075513;28;20041;-79
2021/03/15 02:42:53;;;;;;;8.27;3.20;;;;;;;2.15;90.47;98695.44;5075959;28;20102;-80
2021/03/15 02:45:20;;;;;;;5.30;3.15;;;;;;;2.12;90.53;98677.81;5075449;28;20044;-79
2021/03/15 02:47:50;;;;;;;8.50;3.75;;;;;;;2.23;90.57;98683.97;5075910;28;20059;-80
2021/03/15 02:50:17;;;;;;;6.28;3.50;;;;;;;2.29;90.05;98689.63;5075303;28;20110;-79
2021/03/15 02:52:47;;;;;;;11.13;4.47;;;;;;;2.42;89.14;98678.56;5074846;28;20495;-80
2021/03/15 02:55:21;;;;;;;10.50;3.90;;;;;;;2.47;89.36;98678.19;5067466;28;20056;-79
2021/03/15 02:57:50;;;;;;;13.57;4.07;;;;;;;2.46;89.55;98677.31;5074732;28;20056;-80
2021/03/15 03:00:18;;;;;;;6.30;3.47;;;;;;;2.37;89.43;98658.56;5075107;28;20045;-79
2021/03/15 03:02:46;;;;;;;7.38;3.50;;;;;;;2.38;89.32;98649.50;5075636;28;20388;-80
2021/03/15 03:05:17;;;;;;;9.20;3.92;;;;;;;2.34;89.29;98648.13;5074797;28;20053;-79
2021/03/15 03:07:45;;;;;;;;;;;;;;;2.45;89.08;98656.00;5070652;28;20057;-80
2021/03/15 03:10:14;;;;;;;5.63;4.03;;;;;;;2.34;88.53;98640.91;5075506;28;19986;-80
2021/03/15 03:12:41;;;;;;;6.83;3.07;;;;;;;2.23;88.80;98630.34;5075175;28;20051;-80
2021/03/15 03:15:11;;;;;;;8.90;3.47;;;;;;;2.35;88.25;98650.66;5074492;28;20306;-79
2021/03/15 03:17:40;;;;;;;8.98;3.22;;;;;;;2.21;88.66;98657.31;5074958;28;20056;-79
2021/03/15 03:20:09;;;;;;;4.25;2.92;;;;;;;2.17;88.45;98639.84;5074709;28;20087;-79
2021/03/15 03:22:38;;;;;;;8.52;3.35;;;;;;;2.12;87.86;98639.41;5074779;28;20049;-79
2021/03/15 03:25:05;;;;;;;8.80;2.45;;;;;;;1.86;88.38;98625.75;5072846;28;20075;-80
2021/03/15 03:27:33;;;;;;;7.75;3.28;;;;;;;1.77;88.51;98614.88;5074149;28;20507;-80
2021/03/15 03:30:00;;;;;;;6.88;3.42;;;;;;;1.82;88.27;98617.13;5074174;28;20044;-80
2021/03/15 03:32:28;;;;;;;9.32;3.63;;;;;;;1.90;88.35;98616.47;5074442;28;20079;-80
2021/03/15 03:34:55;;;;;;;11.25;3.40;;;;;;;1.89;89.61;98614.75;5073713;28;20057;-80
2021/03/15 03:37:22;;;;;;;11.80;3.38;;;;;;;1.92;88.87;98619.81;5073914;28;20056;-79
2021/03/15 03:39:51;;;;;;;6.00;3.65;;;;;;;1.95;89.29;98620.38;5073958;28;20060;-80
2021/03/15 03:42:17;;;;;;;7.05;3.97;;;;;;;1.81;89.48;98596.72;5074451;28;20060;-79
2021/03/15 03:44:44;;;;;;;7.43;3.80;;;;;;;1.91;89.39;98608.28;5073087;28;20443;-80
2021/03/15 03:47:11;;;;;;;14.02;3.85;;;;;;;1.81;89.25;98591.34;5073843;28;20048;-79
2021/03/15 03:49:38;;;;;;;8.02;4.53;;;;;;;2.00;89.82;98616.44;5075129;28;20110;-80
2021/03/15 03:52:07;;;;;;;9.45;4.78;;;;;;;1.97;90.07;98608.66;5074501;28;20049;-80
2021/03/15 03:54:38;;;;;;;7.88;4.40;;;;;;;1.98;89.47;98608.53;5072407;28;20053;-79
2021/03/15 03:57:08;;;;;;;4.88;3.50;;;;;;;2.10;89.64;98609.22;5074463;28;20067;-80
2021/03/15 03:59:38;;;;;;;10.82;4.25;;;;;;;2.10;89.42;98607.38;5074395;28;20428;-80
2021/03/15 04:02:06;;;;;;;6.77;3.60;;;;;;;2.02;89.47;98584.94;5074258;28;20056;-80
2021/03/15 04:04:38;;;;;;;10.07;4.15;;;;;;;2.04;89.18;98601.75;5073772;28;20044;-80
2021/03/15 04:07:06;;;;;;;7.13;3.60;;;;;;;1.94;89.66;98588.34;5074115;28;20527;-80
2021/03/15 04:09:34;;;;;;;9.45;4.28;;;;;;;2.02;89.21;98601.91;5073788;28;20496;-80
2021/03/15 04:12:05;;;;;;;4.63;3.50;;;;;;;2.03;89.29;98594.69;5074437;28;20106;-80
2021/03/15 04:14:37;;;;;;;7.00;4.15;;;;;;;2.11;89.15;98600.19;5073819;28;20054;-80
2021/03/15 04:17:05;;;;;;;9.57;4.00;;;;;;;2.00;88.67;98593.13;5074655;28;20083;-80
2021/03/15 04:19:39;;;;;;;14.05;4.55;;;;;;;2.08;89.00;98597.81;5072567;28;20040;-80
2021/03/15 04:22:08;;;;;;;10.82;4.68;;;;;;;2.11;88.74;98603.72;5073864;28;20047;-80
2021/03/15 04:24:37;;;;;;;10.65;4.22;;;;;;;2.05;88.65;98584.69;5069560;28;20052;-80
2021/03/15 04:27:05;;;;;;;16.17;4.20;;;;;;;2.10;88.90;98596.63;5053866;28;20107;-80
2021/03/15 04:29:33;;;;;;;16.67;4.00;;;;;;;1.98;89.40;98576.34;5053832;28;20139;-80
2021/03/15 04:31:59;;;;;;;9.15;4.13;;;;;;;1.98;89.86;98565.63;5070780;28;20059;-80
2021/03/15 04:34:32;;;;;;;7.40;4.25;;;;;;;2.11;89.26;98584.09;5073255;28;20045;-80
2021/03/15 04:37:00;;;;;;;11.25;4.47;;;;;;;1.93;89.77;98549.97;5073503;28;20044;-80
2021/03/15 04:39:30;;;;;;;10.60;3.75;;;;;;;2.01;89.03;98551.09;5073518;28;20060;-80
2021/03/15 04:41:57;;;;;;;8.00;4.00;;;;;;;2.09;89.39;98573.53;5073552;28;20055;-80
2021/03/15 04:44:26;;;;;;;10.57;3.58;;;;;;;1.96;89.50;98559.59;5072683;28;20140;-80
2021/03/15 04:46:53;;;;;;;11.88;4.07;;;;;;;2.02;89.12;98560.81;5073130;28;20078;-80
2021/03/15 04:49:19;;;;;;;7.03;4.13;;;;;;;2.03;89.47;98558.03;5074093;28;20048;-79
2021/03/15 04:51:47;;;;;;;6.50;3.70;;;;;;;1.92;89.62;98547.44;5073638;28;20052;-78
2021/03/15 04:54:14;;;;;;;8.57;3.97;;;;;;;1.93;89.66;98563.38;5061619;28;20052;-78
2021/03/15 04:56:41;;;;;;;7.63;3.83;;;;;;;1.98;89.68;98559.44;5073718;28;20166;-78
2021/03/15 04:59:09;;;;;;;11.55;3.90;;;;;;;1.93;89.22;98535.75;5073128;28;20044;-78
2021/03/15 05:01:40;;;;;;;11.10;4.47;;;;;;;2.01;89.27;98548.41;5073168;28;20049;-78
2021/03/15 05:04:09;;;;;;;19.00;4.20;;;;;;;1.94;90.04;98549.00;5072163;28;20446;-79
2021/03/15 05:06:37;;;;;;;5.43;3.17;;;;;;;2.07;89.21;98558.56;5072958;28;20472;-79
2021/03/15 05:09:09;;;;;;;10.57;3.85;;;;;;;2.09;90.07;98567.28;5073323;28;20053;-79
2021/03/15 05:11:38;;;;;;;7.57;3.28;;;;;;;2.00;89.47;98536.00;5072679;28;20555;-79
2021/03/15 05:14:05;;;;;;;10.98;3.35;;;;;;;2.07;89.39;98540.63;5072796;28;20049;-79
2021/03/15 05:16:35;;;;;;;7.70;3.75;;;;;;;2.07;89.61;98539.78;5072528;28;20543;-80
2021/03/15 05:19:03;;;;;;;6.57;3.33;;;;;;;1.98;89.68;98525.41;5071040;28;20048;-79
2021/03/15 05:21:32;;;;;;;6.60;3.42;;;;;;;2.03;89.58;98522.28;5072953;28;20040;-79
2021/03/15 05:23:59;;;;;;;5.53;3.17;;;;;;;1.94;89.87;98508.78;5072579;28;20048;-79
2021/03/15 05:26:28;;;;;;;8.40;3.20;;;;;;;1.99;90.54;98521.75;5072277;28;20056;-80
2021/03/15 05:28:57;;;;;;;8.07;3.40;;;;;;;2.00;90.23;98514.53;5072840;28;20041;-79
2021/03/15 05:31:24;;;;;;;5.22;3.55;;;;;;;2.05;90.87;98523.00;5068592;28;20110;-80
2021/03/15 05:33:52;;;;;;;4.95;2.97;;;;;;;2.12;90.33;98527.63;5053553;28;20049;-80
2021/03/15 05:36:20;;;;;;;7.13;3.60;;;;;;;2.13;90.65;98534.66;5059974;28;20392;-81
2021/03/15 05:38:49;;;;;;;5.50;3.70;;;;;;;1.94;90.48;98508.78;5066061;28;20056;-80
2021/03/15 05:41:16;;;;;;;5.50;3.03;;;;;;;2.16;90.63;98524.66;5072775;28;20488;-81
2021/03/15 05:44:11;;;;;;;6.35;3.03;;;;;;;2.08;90.32;98507.47;5072843;28;20087;-80
2021/03/15 05:47:09;;;;;;;6.45;3.75;;;;;;;1.98;90.45;98495.09;5072630;28;20048;-80
2021/03/15 05:50:13;;;;;;;7.78;3.00;;;;;;;2.04;90.36;98500.69;5069935;28;20048;-80
2021/03/15 05:53:15;;;;;;;13.07;3.50;;;;;;;2.05;90.38;98480.13;5072573;28;20074;-81
2021/03/15 05:56:01;;;;;;;7.22;3.22;;;;;;;2.16;90.72;98504.03;5050527;28;20063;-81
2021/03/15 05:59:06;;;;;;;9.18;2.85;;;;;;;2.00;90.22;98501.97;5071930;28;20687;-81
2021/03/15 06:01:49;;;;;;;4.20;2.85;;;;;;;1.94;90.69;98491.84;5072053;28;20062;-80
2021/03/15 06:04:46;;;;;;;3.90;2.58;;;;;;;1.85;91.06;98484.69;5071843;28;20072;-81
2021/03/15 06:07:20;;;;;;;9.05;3.17;;;;;;;1.88;90.77;98474.53;5072391;28;20049;-81
2021/03/15 06:10:01;;;;;;;5.15;2.55;;;;;;;1.98;90.45;98484.38;5072275;28;20052;-81
2021/03/15 06:12:36;;;;;;;4.43;2.97;;;;;;;1.88;90.50;98460.25;5071791;28;20076;-80
2021/03/15 06:15:05;;;;;;;3.20;2.30;;;;;;;2.02;90.62;98478.56;5069451;28;20041;-80
2021/03/15 06:17:34;;;;;;;7.57;2.53;;;;;;;2.08;90.25;98474.44;5071974;28;20055;-80
2021/03/15 06:20:04;;;;;;;5.60;2.80;;;;;;;2.06;89.81;98479.97;5069039;28;20053;-80
2021/03/15 06:22:32;;;;;;;4.53;2.47;;;;;;;2.06;90.73;98471.91;5069290;28;20049;-81
2021/03/15 06:25:00;;;;;;;4.45;2.60;;;;;;;2.02;90.69;98472.34;5069421;28;20044;-80
2021/03/15 06:27:28;;;;;;;7.22;2.53;;;;;;;1.95;90.27;98454.16;5065323;28;20079;-80
2021/03/15 06:29:56;;;;;;;5.43;2.92;;;;;;;1.98;90.46;98460.25;5069922;28;20130;-81
2021/03/15 06:32:26;;;;;;;4.22;3.17;;;;;;;2.17;90.65;98448.56;5059714;28;20050;-80
2021/03/15 06:34:53;;;;;;;4.78;3.17;;;;;;;2.00;89.72;98432.28;5069312;28;20571;-80
2021/03/15 06:37:20;;;;;;;4.40;2.95;;;;;;;2.01;89.96;98428.59;5069131;28;20369;-80
2021/03/15 06:39:50;;;;;;;4.05;3.17;;;;;;;2.07;90.21;98432.53;5072293;28;20056;-80
2021/03/15 06:42:19;;;;;;;5.90;3.10;;;;;;;2.21;89.48;98450.78;5072158;28;20480;-80
2021/03/15 06:44:45;;;;;;;9.35;4.47;;;;;;;2.29;89.19;98437.50;5070937;28;20044;-80
2021/03/15 06:47:14;;;;;;;7.45;4.35;;;;;;;2.29;89.52;98439.34;5072055;28;20045;-81
2021/03/15 06:49:41;;;;;;;4.47;3.60;;;;;;;2.28;89.98;98429.59;5071999;28;20056;-82
2021/03/15 06:52:09;;;;;;;4.47;3.00;;;;;;;2.26;89.84;98415.50;5071768;28;20093;-80
2021/03/15 06:54:36;;;;;;;8.18;3.17;;;;;;;2.43;89.87;98436.13;5069425;28;20048;-80
2021/03/15 06:57:12;;;;;;;5.68;2.97;;;;;;;2.50;89.97;98435.53;5072598;28;20074;-80
2021/03/15 06:59:53;;;;;;;5.43;2.78;;;;;;;2.42;90.07;98426.38;5072641;28;20053;-81
2021/03/15 07:02:28;;;;;;;5.47;2.72;;;;;;;2.40;89.90;98425.72;5075326;28;20087;-81
2021/03/15 07:05:06;;;;;;;4.80;2.83;;;;;;;2.57;90.35;98433.94;5069099;28;20052;-81
2021/03/15 07:07:36;;;;;;;8.98;3.13;;;;;;;2.57;90.47;98433.94;5074855;28;20053;-81
2021/03/15 07:10:02;;;;;;;3.35;2.90;;;;;;;2.59;90.21;98426.56;5075243;28;20055;-81
2021/03/15 07:12:29;;;;;;;3.88;2.70;;;;;;;2.58;89.98;98435.63;5075506;28;20049;-79
2021/03/15 07:15:06;;;;;;;3.80;2.90;;;;;;;2.56;90.16;98433.09;5068941;28;20067;-78
2021/03/15 07:17:33;;;;;;;6.22;2.95;;;;;;;2.54;89.37;98431.56;5074792;28;20052;-78
2021/03/15 07:20:00;;;;;;;8.90;3.22;;;;;;;2.57;90.27;98423.19;5073569;28;20105;-78
2021/03/15 07:22:28;;;;;;;7.32;3.05;;;;;;;2.51;90.35;98424.66;5075350;28;20053;-78
2021/03/15 07:25:14;;;;;;;6.75;3.20;;;;;;;2.70;90.92;98431.72;5062479;28;20100;-79
2021/03/15 07:27:42;;;;;;;4.53;2.95;;;;;;;2.82;90.36;98430.50;5055095;28;20114;-78
2021/03/15 07:30:42;;;;;;;4.60;2.80;;;;;;;2.89;90.06;98427.19;5055321;28;20041;-78
2021/03/15 07:33:15;;;;;;;;;;;;;;;2.94;89.45;98433.78;4994215;28;20050;-78
2021/03/15 07:35:43;;;;;;;4.05;2.22;;;;;;;2.67;89.51;98423.16;4993031;28;19922;-78
2021/03/15 07:38:09;;;;;;;6.97;2.75;;;;;;;2.54;89.84;98418.97;5034328;28;20490;-79
2021/03/15 07:40:41;;;;;;;6.07;2.70;;;;;;;2.65;89.77;98437.56;5074995;28;20078;-79
2021/03/15 07:43:11;;;;;;;3.97;2.15;;;;;;;2.46;88.89;98441.19;5074764;28;20049;-79
2021/03/15 07:45:40;;;;;;;2.33;1.55;;;;;;;2.47;89.18;98434.84;5073854;28;20056;-79
2021/03/15 07:48:19;;;;;;;5.93;2.28;;;;;;;2.34;88.55;98430.84;5074603;28;20052;-79
2021/03/15 07:50:59;;;;;;;4.18;2.10;;;;;;;2.47;89.56;98452.78;5062716;28;20056;-79
2021/03/15 07:53:37;;;;;;;1.80;1.70;;;;;;;2.19;88.35;98425.13;5073132;28;20056;-79
2021/03/15 07:56:05;;;;;;;2.42;1.25;;;;;;;2.07;89.02;98443.25;5073722;28;20476;-78
2021/03/15 07:58:33;;;;;;;1.48;1.38;;;;;;;2.12;89.05;98455.25;5074644;28;20106;-78
2021/03/15 08:01:01;;;;;;;1.40;1.30;;;;;;;1.86;89.50;98432.78;5074590;28;20044;-79
2021/03/15 08:03:28;;;;;;;2.97;1.73;;;;;;;1.80;89.64;98438.72;5074603;28;20048;-79
2021/03/15 08:05:57;;;;;;;1.60;1.50;;;;;;;1.80;89.91;98428.84;5073389;28;20044;-79
2021/03/15 08:08:24;;;;;;;1.70;1.10;;;;;;;1.84;89.64;98442.81;5073127;28;20056;-79
2021/03/15 08:10:51;;;;;;;3.58;1.60;;;;;;;1.89;90.15;98451.25;5069151;28;20081;-79
2021/03/15 08:13:20;;;;;;;2.20;1.38;;;;;;;1.97;90.34;98470.09;5053612;28;20045;-78
2021/03/15 08:15:48;;;;;;;2.05;1.88;;;;;;;1.99;89.70;98449.38;5059928;28;20094;-79
2021/03/15 08:18:29;;;;;;;1.80;1.65;;;;;;;2.13;89.53;98472.16;5071481;28;20487;-79
2021/03/15 08:21:03;;;;;;;3.22;1.98;;;;;;;2.08;90.40;98461.06;5061365;28;20158;-79
2021/03/15 08:23:31;;;;;;;2.78;1.58;;;;;;;2.00;89.55;98450.19;5053525;28;20041;-79
2021/03/15 08:26:03;;;;;;;1.50;1.40;;;;;;;2.07;89.99;98462.03;5053385;28;20052;-79
2021/03/15 08:28:31;;;;;;;4.10;1.58;;;;;;;2.14;89.72;98471.19;5055877;28;20056;-79
2021/03/15 08:31:01;;;;;;;1.67;1.58;;;;;;;2.10;89.89;98451.84;5073896;28;20044;-79
2021/03/15 08:33:28;;;;;;;1.85;1.50;;;;;;;2.21;90.39;98450.78;5073758;28;20045;-79
2021/03/15 08:35:55;;;;;;;2.90;1.70;;;;;;;2.43;91.04;98470.19;5071738;28;20140;-79
2021/03/15 08:38:31;;;;;;;2.78;1.88;;;;;;;2.48;90.56;98452.66;5074109;28;20040;-79
2021/03/15 08:41:00;;;;;;;4.40;2.05;;;;;;;2.35;89.39;98454.84;5073735;28;20483;-79
2021/03/15 08:43:40;;;;;;;1.70;1.60;;;;;;;2.41;89.03;98459.59;5073224;28;20480;-79
2021/03/15 08:46:09;;;;;;;3.22;1.67;;;;;;;2.44;89.43;98470.03;5071844;28;20049;-79
2021/03/15 08:48:54;;;;;;;3.63;1.92;;;;;;;2.46;90.60;98468.03;5073590;28;20052;-79
2021/03/15 08:51:51;;;;;;;3.63;1.75;;;;;;;2.53;90.43;98462.06;5071839;28;20044;-79
2021/03/15 08:54:41;;;;;;;1.90;1.60;;;;;;;2.45;90.75;98457.44;5052995;28;20064;-79
2021/03/15 08:57:29;;;;;;;2.25;1.88;;;;;;;2.52;90.49;98452.34;5053805;28;20045;-79
2021/03/15 08:59:55;;;;;;;5.28;2.38;;;;;;;2.70;90.81;98458.56;5053432;28;20082;-79
2021/03/15 09:02:34;;;;;;;2.20;1.85;;;;;;;2.73;90.44;98462.78;5053508;28;20048;-79
2021/03/15 09:05:23;;;;;;;2.05;1.80;;;;;;;2.59;89.69;98453.41;5052449;28;20048;-79
2021/03/15 09:07:50;;;;;;;5.60;1.90;;;;;;;2.74;89.94;98457.28;5058852;28;20048;-79
2021/03/15 09:10:44;;;;;;;3.30;1.80;;;;;;;2.78;90.71;98457.81;5073457;28;20052;-79
2021/03/15 09:13:30;;;;;;;2.42;1.75;;;;;;;2.88;90.93;98461.25;5054909;28;20044;-79
2021/03/15 09:15:59;;;;;;;2.47;1.80;;;;;;;2.83;90.80;98450.13;5068718;28;20049;-80
2021/03/15 09:18:56;;;;;;;3.10;2.00;;;;;;;2.85;90.82;98453.50;5069844;28;20065;-80
2021/03/15 09:22:00;;;;;;;3.47;1.85;;;;;;;2.80;90.84;98459.34;5067128;28;20044;-79
2021/03/15 09:24:58;;;;;;;2.00;1.60;;;;;;;2.82;90.95;98446.59;5070526;28;20068;-79
2021/03/15 09:27:36;;;;;;;3.08;1.85;;;;;;;2.85;90.65;98448.16;5055475;28;20052;-79
2021/03/15 09:30:11;;;;;;;4.82;2.20;;;;;;;3.07;91.05;98457.59;5057080;28;20045;-79
2021/03/15 09:32:40;;;;;;;1.90;1.70;;;;;;;3.07;90.79;98462.97;5057344;28;20052;-79
2021/03/15 09:35:22;;;;;;;2.13;1.80;;;;;;;3.06;90.96;98461.25;5069749;28;20139;-79
2021/03/15 09:37:53;;;;;;;2.88;1.65;;;;;;;3.22;90.65;98473.13;5051763;28;20056;-80
2021/03/15 09:40:22;;;;;;;4.28;2.72;;;;;;;3.29;90.81;98464.28;5059170;28;20480;-78
2021/03/15 09:42:50;;;;;;;1.67;1.58;;;;;;;3.19;91.20;98445.59;5071459;28;20049;-79
2021/03/15 09:45:26;;;;;;;2.00;1.50;;;;;;;3.22;91.43;98443.59;5070225;28;20045;-78
2021/03/15 09:47:53;;;;;;;1.52;1.23;;;;;;;3.38;90.93;98462.53;5070576;28;20508;-78
2021/03/15 09:50:23;;;;;;;2.55;1.60;;;;;;;3.44;91.01;98458.38;5068788;28;20048;-78
2021/03/15 09:52:49;;;;;;;2.72;1.60;;;;;;;3.42;90.84;98450.47;5065695;28;20056;-80
2021/03/15 09:55:16;;;;;;;2.08;1.60;;;;;;;3.50;91.22;98447.00;5071006;28;20053;-80
2021/03/15 09:57:42;;;;;;;4.38;2.00;;;;;;;3.55;91.16;98444.66;5070713;28;20127;-80
2021/03/15 10:00:11;;;;;;;3.65;2.17;;;;;;;3.57;90.95;98450.75;5070377;28;20443;-80
2021/03/15 10:02:39;;;;;;;1.70;1.50;;;;;;;3.55;90.61;98450.03;5067351;28;20049;-80
2021/03/15 10:05:08;;;;;;;4.10;2.05;;;;;;;3.58;90.84;98454.25;5051086;28;20049;-81
2021/03/15 10:07:39;;;;;;;3.58;2.35;;;;;;;3.48;91.42;98443.63;5051405;28;20057;-80
2021/03/15 10:10:14;;;;;;;3.75;2.08;;;;;;;3.59;90.57;98458.66;5067490;28;20056;-81
2021/03/15 10:12:40;;;;;;;3.45;2.30;;;;;;;3.55;91.19;98452.72;5071002;28;20056;-81
2021/03/15 10:15:17;;;;;;;4.05;2.17;;;;;;;3.59;91.32;98461.34;5069832;28;20052;-81
2021/03/15 10:17:48;;;;;;;3.45;2.25;;;;;;;3.55;91.14;98455.41;5059520;28;20053;-81
2021/03/15 10:20:28;;;;;;;5.35;2.13;;;;;;;3.63;91.47;98468.06;5067564;28;20041;-81
2021/03/15 10:22:54;;;;;;;;;;;;;;;3.70;91.55;98463.75;5071223;28;20052;-81
2021/03/15 10:25:21;;;;;;;3.38;1.90;;;;;;;3.54;90.72;98454.59;5065774;28;20004;-82
2021/03/15 10:27:55;;;;;;;6.18;2.28;;;;;;;3.69;90.72;98467.47;5071779;28;20370;-82
2021/03/15 10:30:27;;;;;;;3.72;2.47;;;;;;;3.76;90.69;98457.72;5062621;28;20045;-81
2021/03/15 10:32:54;;;;;;;3.97;2.55;;;;;;;3.89;90.45;98476.97;5071567;28;20049;-81
2021/03/15 10:35:21;;;;;;;4.82;2.45;;;;;;;3.93;90.49;98473.97;5073306;28;20484;-81
2021/03/15 10:37:51;;;;;;;2.95;2.40;;;;;;;4.00;90.95;98465.09;5073527;28;20072;-81
2021/03/15 10:40:20;;;;;;;3.47;2.10;;;;;;;4.06;89.43;98474.38;5055708;28;20056;-81
2021/03/15 10:42:47;;;;;;;2.47;2.10;;;;;;;4.05;89.56;98478.06;5074338;28;20080;-81
2021/03/15 10:45:14;;;;;;;6.25;1.83;;;;;;;4.12;88.94;98483.66;5064153;28;20056;-80
2021/03/15 10:47:43;;;;;;;2.40;1.95;;;;;;;4.11;88.35;98482.81;5068056;28;20055;-81
2021/03/15 10:50:28;;;;;;;3.38;1.98;;;;;;;3.99;89.06;98473.31;5061918;28;20558;-81
2021/03/15 10:53:11;;;;;;;2.75;2.28;;;;;;;4.05;87.97;98470.00;5073964;28;20059;-81
2021/03/15 10:55:37;;;;;;;4.57;2.15;;;;;;;4.16;88.76;98476.97;5074109;28;20500;-81
2021/03/15 10:58:11;;;;;;;2.85;1.83;;;;;;;4.12;87.32;98465.66;5072686;28;20503;-81
2021/03/15 11:00:39;;;;;;;2.25;1.85;;;;;;;4.20;86.98;98470.22;5073993;28;20479;-81
2021/03/15 11:03:09;;;;;;;2.45;1.98;;;;;;;4.32;87.60;98486.94;5074196;28;20048;-81
2021/03/15 11:05:48;;;;;;;2.33;1.67;;;;;;;4.32;86.36;98489.63;5066387;28;20052;-81
2021/03/15 11:08:21;;;;;;;3.25;1.88;;;;;;;4.28;85.87;98481.06;5065696;28;20049;-81
2021/03/15 11:10:48;;;;;;;2.55;1.92;;;;;;;4.29;86.51;98477.38;5053415;28;20060;-81
2021/03/15 11:13:24;;;;;;;5.70;2.00;;;;;;;4.17;87.12;98474.13;5053641;28;20049;-80
2021/03/15 11:15:54;;;;;;;2.50;2.05;;;;;;;4.25;86.97;98476.81;5069729;28;20055;-82
2021/03/15 11:18:21;;;;;;;5.30;2.45;;;;;;;4.35;87.44;98502.75;5072313;28;20075;-81
2021/03/15 11:20:52;;;;;;;7.20;2.70;;;;;;;4.22;87.07;98485.22;5071941;28;20492;-81
2021/03/15 11:23:30;;;;;;;3.75;2.35;;;;;;;4.21;87.59;98494.28;5072411;28;20068;-81
2021/03/15 11:26:05;;;;;;;7.43;2.80;;;;;;;4.23;87.18;98500.38;5072277;28;20131;-81
2021/03/15 11:28:34;;;;;;;3.28;2.22;;;;;;;4.36;88.00;98520.59;5068787;28;20105;-81
2021/03/15 11:31:00;;;;;;;3.17;2.00;;;;;;;4.48;86.75;98515.78;5072235;28;20079;-81
2021/03/15 11:33:30;;;;;;;3.13;2.05;;;;;;;4.41;86.27;98504.81;5072530;28;20413;-81
2021/03/15 11:36:15;;;;;;;2.60;1.90;;;;;;;4.45;86.35;98508.03;5072096;28;20084;-82
2021/03/15 11:39:10;;;;;;;4.40;2.40;;;;;;;4.50;86.03;98521.84;5072657;28;20548;-82
2021/03/15 11:41:45;;;;;;;2.60;2.10;;;;;;;4.58;85.56;98528.09;5061060;28;20056;-83
2021/03/15 11:44:12;;;;;;;4.10;2.40;;;;;;;4.79;85.92;98534.91;5071109;28;20079;-82
2021/03/15 11:46:40;;;;;;;3.38;2.30;;;;;;;4.83;83.58;98517.41;5071255;28;20048;-82
2021/03/15 11:49:08;;;;;;;2.42;1.90;;;;;;;4.94;83.18;98521.66;5072221;28;20056;-82
2021/03/15 11:51:35;;;;;;;2.78;2.20;;;;;;;5.15;84.43;98529.28;5073126;28;20049;-82
2021/03/15 11:54:02;;;;;;;2.03;1.42;;;;;;;5.14;82.38;98519.50;5071879;28;20480;-82
2021/03/15 11:56:30;;;;;;;3.25;1.85;;;;;;;5.14;79.72;98525.72;5072420;28;20114;-82
2021/03/15 11:58:56;;;;;;;4.70;2.40;;;;;;;5.37;80.38;98530.47;5074286;28;20044;-82
2021/03/15 12:01:24;;;;;;;2.75;1.88;;;;;;;5.43;81.30;98519.00;5073502;28;20044;-82